sensor_id;sensor_type;location;lat;lon;timestamp;pressure;altitude;pressure_sealevel;temperature;humidity
250;BME280;109;19.806;-70.704;2022-08-19T00:01:38;101400.44;;;26.37;68.51
250;BME280;109;19.806;-70.704;2022-08-19T00:04:07;101414.50;;;26.25;68.17
250;BME280;109;19.806;-70.704;2022-08-19T00:06:35;101406.97;;;26.32;68.83
250;BME280;109;19.806;-70.704;2022-08-19T00:09:04;101411.94;;;26.22;68.66
250;BME280;109;19.806;-70.704;2022-08-19T00:11:31;101413.69;;;26.23;69.10
250;BME280;109;19.806;-70.704;2022-08-19T00:14:06;101412.56;;;26.27;68.92
250;BME280;109;19.806;-70.704;2022-08-19T00:16:45;101412.19;;;26.35;68.22
250;BME280;109;19.806;-70.704;2022-08-19T00:19:20;101419.19;;;26.20;68.52
250;BME280;109;19.806;-70.704;2022-08-19T00:21:47;101410.06;;;26.24;68.33
250;BME280;109;19.806;-70.704;2022-08-19T00:24:20;101413.28;;;26.31;68.89
250;BME280;109;19.806;-70.704;2022-08-19T00:27:08;101408.94;;;26.28;69.35
250;BME280;109;19.806;-70.704;2022-08-19T00:29:48;101411.28;;;26.17;69.04
250;BME280;109;19.806;-70.704;2022-08-19T00:32:31;101420.31;;;26.33;68.64
250;BME280;109;19.806;-70.704;2022-08-19T00:35:07;101426.38;;;26.38;68.91
250;BME280;109;19.806;-70.704;2022-08-19T00:37:54;101421.00;;;26.38;68.65
250;BME280;109;19.806;-70.704;2022-08-19T00:40:27;101422.50;;;26.44;68.16
250;BME280;109;19.806;-70.704;2022-08-19T00:43:11;101428.66;;;26.46;68.26
250;BME280;109;19.806;-70.704;2022-08-19T00:45:45;101428.59;;;26.47;68.58
250;BME280;109;19.806;-70.704;2022-08-19T00:48:25;101436.88;;;26.43;68.44
250;BME280;109;19.806;-70.704;2022-08-19T00:50:53;101435.44;;;26.53;68.55
250;BME280;109;19.806;-70.704;2022-08-19T00:53:33;101437.97;;;26.56;68.20
250;BME280;109;19.806;-70.704;2022-08-19T00:56:01;101447.38;;;26.47;67.73
250;BME280;109;19.806;-70.704;2022-08-19T00:58:42;101459.00;;;26.48;68.07
250;BME280;109;19.806;-70.704;2022-08-19T01:01:09;101465.84;;;26.54;67.30
250;BME280;109;19.806;-70.704;2022-08-19T01:03:49;101477.63;;;26.51;67.17
250;BME280;109;19.806;-70.704;2022-08-19T01:06:16;101473.34;;;26.47;67.27
250;BME280;109;19.806;-70.704;2022-08-19T01:08:56;101471.06;;;26.57;67.32
250;BME280;109;19.806;-70.704;2022-08-19T01:11:22;101476.84;;;26.66;66.98
250;BME280;109;19.806;-70.704;2022-08-19T01:14:03;101476.69;;;26.69;66.71
250;BME280;109;19.806;-70.704;2022-08-19T01:16:30;101486.09;;;26.61;66.78
250;BME280;109;19.806;-70.704;2022-08-19T01:19:35;101483.19;;;26.65;66.64
250;BME280;109;19.806;-70.704;2022-08-19T01:25:19;101482.59;;;26.59;66.95
250;BME280;109;19.806;-70.704;2022-08-19T01:28:06;101484.56;;;26.55;66.64
250;BME280;109;19.806;-70.704;2022-08-19T01:30:39;101487.09;;;26.58;66.75
250;BME280;109;19.806;-70.704;2022-08-19T01:33:19;101492.09;;;26.66;67.13
250;BME280;109;19.806;-70.704;2022-08-19T01:35:47;101495.56;;;26.68;66.87
250;BME280;109;19.806;-70.704;2022-08-19T01:38:27;101496.28;;;26.71;66.75
250;BME280;109;19.806;-70.704;2022-08-19T01:40:57;101505.00;;;26.76;66.47
250;BME280;109;19.806;-70.704;2022-08-19T01:43:38;101495.75;;;26.65;66.75
250;BME280;109;19.806;-70.704;2022-08-19T01:46:05;101494.91;;;26.45;66.66
250;BME280;109;19.806;-70.704;2022-08-19T01:48:45;101503.31;;;26.38;67.32
250;BME280;109;19.806;-70.704;2022-08-19T01:51:12;101510.47;;;26.39;67.15
250;BME280;109;19.806;-70.704;2022-08-19T01:53:53;101511.88;;;26.46;66.79
250;BME280;109;19.806;-70.704;2022-08-19T01:56:20;101516.38;;;26.45;67.17
250;BME280;109;19.806;-70.704;2022-08-19T01:59:06;101513.75;;;26.44;66.88
250;BME280;109;19.806;-70.704;2022-08-19T02:01:40;101519.94;;;26.46;67.08
250;BME280;109;19.806;-70.704;2022-08-19T02:04:20;101517.25;;;26.46;67.09
250;BME280;109;19.806;-70.704;2022-08-19T02:06:47;101527.03;;;26.47;66.94
250;BME280;109;19.806;-70.704;2022-08-19T02:09:27;101526.25;;;26.45;66.99
250;BME280;109;19.806;-70.704;2022-08-19T02:12:07;101515.97;;;26.53;67.34
250;BME280;109;19.806;-70.704;2022-08-19T02:14:42;101530.16;;;26.38;67.05
250;BME280;109;19.806;-70.704;2022-08-19T02:17:21;101528.56;;;26.34;67.67
250;BME280;109;19.806;-70.704;2022-08-19T02:19:48;101532.91;;;26.36;67.72
250;BME280;109;19.806;-70.704;2022-08-19T02:22:28;101537.19;;;26.40;67.61
250;BME280;109;19.806;-70.704;2022-08-19T02:24:55;101535.38;;;26.41;67.76
250;BME280;109;19.806;-70.704;2022-08-19T02:27:43;101550.41;;;26.26;67.82
250;BME280;109;19.806;-70.704;2022-08-19T02:30:17;101543.34;;;25.66;68.39
250;BME280;109;19.806;-70.704;2022-08-19T02:32:57;101551.50;;;25.63;69.08
250;BME280;109;19.806;-70.704;2022-08-19T02:35:24;101548.56;;;25.69;69.57
250;BME280;109;19.806;-70.704;2022-08-19T02:38:03;101549.94;;;25.59;68.58
250;BME280;109;19.806;-70.704;2022-08-19T02:41:00;101549.75;;;25.43;68.72
250;BME280;109;19.806;-70.704;2022-08-19T02:43:42;101532.38;;;25.52;68.93
250;BME280;109;19.806;-70.704;2022-08-19T02:46:23;101534.50;;;25.64;69.39
250;BME280;109;19.806;-70.704;2022-08-19T02:49:06;101524.06;;;25.58;68.87
250;BME280;109;19.806;-70.704;2022-08-19T02:51:42;101525.13;;;25.54;68.57
250;BME280;109;19.806;-70.704;2022-08-19T02:54:22;101517.47;;;25.65;69.37
250;BME280;109;19.806;-70.704;2022-08-19T02:57:02;101519.16;;;25.67;69.66
250;BME280;109;19.806;-70.704;2022-08-19T02:59:36;101518.72;;;25.76;69.45
250;BME280;109;19.806;-70.704;2022-08-19T03:02:15;101520.25;;;25.82;69.58
250;BME280;109;19.806;-70.704;2022-08-19T03:04:42;101515.59;;;25.87;69.43
250;BME280;109;19.806;-70.704;2022-08-19T03:07:23;101518.28;;;25.87;69.22
250;BME280;109;19.806;-70.704;2022-08-19T03:09:49;101514.63;;;25.88;69.64
250;BME280;109;19.806;-70.704;2022-08-19T03:12:29;101512.13;;;25.85;68.89
250;BME280;109;19.806;-70.704;2022-08-19T03:14:55;101509.47;;;25.84;69.10
250;BME280;109;19.806;-70.704;2022-08-19T03:17:36;101516.53;;;25.86;69.52
250;BME280;109;19.806;-70.704;2022-08-19T03:20:03;101508.31;;;25.89;69.28
250;BME280;109;19.806;-70.704;2022-08-19T03:22:43;101504.06;;;25.85;68.85
250;BME280;109;19.806;-70.704;2022-08-19T03:25:10;101496.06;;;25.84;69.25
250;BME280;109;19.806;-70.704;2022-08-19T03:27:56;101501.16;;;25.90;69.03
250;BME280;109;19.806;-70.704;2022-08-19T03:30:29;101498.69;;;25.85;68.95
250;BME280;109;19.806;-70.704;2022-08-19T03:33:10;101495.84;;;25.88;68.87
250;BME280;109;19.806;-70.704;2022-08-19T03:35:46;101495.00;;;25.88;68.90
250;BME280;109;19.806;-70.704;2022-08-19T03:38:26;101492.41;;;25.86;68.52
250;BME280;109;19.806;-70.704;2022-08-19T03:40:53;101494.84;;;25.91;68.60
250;BME280;109;19.806;-70.704;2022-08-19T03:43:35;101498.41;;;25.91;69.15
250;BME280;109;19.806;-70.704;2022-08-19T03:46:08;101501.88;;;25.93;68.70
250;BME280;109;19.806;-70.704;2022-08-19T03:48:51;101499.19;;;25.93;68.94
250;BME280;109;19.806;-70.704;2022-08-19T03:51:30;101494.84;;;25.91;68.63
250;BME280;109;19.806;-70.704;2022-08-19T03:54:12;101501.16;;;25.90;68.97
250;BME280;109;19.806;-70.704;2022-08-19T03:56:41;101498.53;;;25.88;68.92
250;BME280;109;19.806;-70.704;2022-08-19T03:59:32;101494.22;;;25.86;69.00
250;BME280;109;19.806;-70.704;2022-08-19T04:02:12;101487.13;;;25.83;68.89
250;BME280;109;19.806;-70.704;2022-08-19T04:04:42;101486.59;;;25.75;68.99
250;BME280;109;19.806;-70.704;2022-08-19T04:07:23;101486.47;;;25.78;68.35
250;BME280;109;19.806;-70.704;2022-08-19T04:09:50;101487.34;;;25.78;68.48
250;BME280;109;19.806;-70.704;2022-08-19T04:12:31;101489.09;;;25.79;68.51
250;BME280;109;19.806;-70.704;2022-08-19T04:14:58;101491.84;;;25.78;68.10
250;BME280;109;19.806;-70.704;2022-08-19T04:17:38;101488.22;;;25.79;68.55
250;BME280;109;19.806;-70.704;2022-08-19T04:20:06;101485.47;;;25.80;68.04
250;BME280;109;19.806;-70.704;2022-08-19T04:22:46;101486.28;;;25.83;67.69
250;BME280;109;19.806;-70.704;2022-08-19T04:25:13;101481.84;;;25.81;67.87
250;BME280;109;19.806;-70.704;2022-08-19T04:27:52;101478.28;;;25.81;67.87
250;BME280;109;19.806;-70.704;2022-08-19T04:30:19;101484.34;;;25.86;67.44
250;BME280;109;19.806;-70.704;2022-08-19T04:32:58;101486.72;;;25.92;67.95
250;BME280;109;19.806;-70.704;2022-08-19T04:35:25;101485.84;;;25.92;67.73
250;BME280;109;19.806;-70.704;2022-08-19T04:38:06;101485.78;;;25.93;67.53
250;BME280;109;19.806;-70.704;2022-08-19T04:40:32;101485.78;;;25.93;67.44
250;BME280;109;19.806;-70.704;2022-08-19T04:43:51;101490.88;;;25.99;67.07
250;BME280;109;19.806;-70.704;2022-08-19T04:46:24;101488.97;;;26.01;66.71
250;BME280;109;19.806;-70.704;2022-08-19T04:49:05;101490.56;;;26.05;66.40
250;BME280;109;19.806;-70.704;2022-08-19T04:51:33;101488.81;;;26.04;66.93
250;BME280;109;19.806;-70.704;2022-08-19T04:54:13;101480.72;;;26.06;66.78
250;BME280;109;19.806;-70.704;2022-08-19T04:56:40;101483.31;;;26.07;66.26
250;BME280;109;19.806;-70.704;2022-08-19T04:59:22;101481.44;;;26.09;66.35
250;BME280;109;19.806;-70.704;2022-08-19T05:01:49;101469.84;;;26.09;66.57
250;BME280;109;19.806;-70.704;2022-08-19T05:04:28;101467.97;;;26.11;66.25
250;BME280;109;19.806;-70.704;2022-08-19T05:07:11;101472.31;;;26.13;66.18
250;BME280;109;19.806;-70.704;2022-08-19T05:09:37;101475.19;;;26.09;66.39
250;BME280;109;19.806;-70.704;2022-08-19T05:12:18;101470.19;;;26.01;66.57
250;BME280;109;19.806;-70.704;2022-08-19T05:14:45;101480.16;;;25.99;67.00
250;BME280;109;19.806;-70.704;2022-08-19T05:17:27;101484.78;;;25.96;66.68
250;BME280;109;19.806;-70.704;2022-08-19T05:19:54;101480.28;;;25.96;67.21
250;BME280;109;19.806;-70.704;2022-08-19T05:22:53;101482.84;;;25.99;67.47
250;BME280;109;19.806;-70.704;2022-08-19T05:25:20;101487.41;;;25.97;67.14
250;BME280;109;19.806;-70.704;2022-08-19T05:28:07;101473.81;;;25.81;68.10
250;BME280;109;19.806;-70.704;2022-08-19T05:30:40;101475.88;;;25.75;68.41
250;BME280;109;19.806;-70.704;2022-08-19T05:33:23;101474.75;;;25.62;68.18
250;BME280;109;19.806;-70.704;2022-08-19T05:35:50;101471.97;;;25.63;68.71
250;BME280;109;19.806;-70.704;2022-08-19T05:38:38;101464.53;;;25.70;68.99
250;BME280;109;19.806;-70.704;2022-08-19T05:41:14;101460.97;;;25.69;68.74
250;BME280;109;19.806;-70.704;2022-08-19T05:44:04;101459.44;;;25.64;69.32
250;BME280;109;19.806;-70.704;2022-08-19T05:46:43;101454.25;;;25.61;68.99
250;BME280;109;19.806;-70.704;2022-08-19T05:49:28;101458.78;;;25.59;69.88
250;BME280;109;19.806;-70.704;2022-08-19T05:52:11;101459.44;;;25.64;69.71
250;BME280;109;19.806;-70.704;2022-08-19T05:54:40;101462.91;;;25.66;69.48
250;BME280;109;19.806;-70.704;2022-08-19T05:57:24;101459.59;;;25.61;69.66
250;BME280;109;19.806;-70.704;2022-08-19T05:59:50;101461.91;;;25.68;69.19
250;BME280;109;19.806;-70.704;2022-08-19T06:02:38;101453.94;;;25.67;69.47
250;BME280;109;19.806;-70.704;2022-08-19T06:05:11;101453.50;;;25.57;69.49
250;BME280;109;19.806;-70.704;2022-08-19T06:07:52;101448.47;;;25.50;69.30
250;BME280;109;19.806;-70.704;2022-08-19T06:10:20;101437.06;;;25.46;69.48
250;BME280;109;19.806;-70.704;2022-08-19T06:12:59;101441.53;;;25.45;69.46
250;BME280;109;19.806;-70.704;2022-08-19T06:15:25;101436.88;;;25.49;69.74
250;BME280;109;19.806;-70.704;2022-08-19T06:18:05;101439.66;;;25.48;69.14
250;BME280;109;19.806;-70.704;2022-08-19T06:20:32;101441.41;;;25.49;68.96
250;BME280;109;19.806;-70.704;2022-08-19T06:23:11;101450.50;;;25.44;69.09
250;BME280;109;19.806;-70.704;2022-08-19T07:32:31;101439.09;;;25.60;68.25
250;BME280;109;19.806;-70.704;2022-08-19T07:35:11;101439.53;;;25.69;67.94
250;BME280;109;19.806;-70.704;2022-08-19T07:37:52;101432.97;;;25.75;67.45
250;BME280;109;19.806;-70.704;2022-08-19T07:40:19;101436.81;;;25.51;68.06
250;BME280;109;19.806;-70.704;2022-08-19T07:42:58;101434.31;;;26.04;66.89
250;BME280;109;19.806;-70.704;2022-08-19T07:45:25;101437.13;;;26.38;66.40
250;BME280;109;19.806;-70.704;2022-08-19T07:48:04;101442.19;;;26.26;66.88
250;BME280;109;19.806;-70.704;2022-08-19T07:50:31;101435.69;;;26.48;65.92
250;BME280;109;19.806;-70.704;2022-08-19T07:53:11;101454.50;;;26.30;66.00
250;BME280;109;19.806;-70.704;2022-08-19T07:55:38;101455.50;;;26.46;65.48
250;BME280;109;19.806;-70.704;2022-08-19T07:58:20;101462.53;;;26.30;65.98
250;BME280;109;19.806;-70.704;2022-08-19T08:00:49;101466.03;;;26.32;65.48
250;BME280;109;19.806;-70.704;2022-08-19T08:20:58;101442.09;;;26.80;64.19
250;BME280;109;19.806;-70.704;2022-08-19T08:23:38;101440.78;;;26.36;65.49
250;BME280;109;19.806;-70.704;2022-08-19T08:26:17;101440.97;;;27.19;63.32
250;BME280;109;19.806;-70.704;2022-08-19T08:28:44;101444.59;;;27.18;63.17
250;BME280;109;19.806;-70.704;2022-08-19T08:31:24;101446.31;;;27.03;63.48
250;BME280;109;19.806;-70.704;2022-08-19T08:33:50;101446.69;;;26.78;63.78
250;BME280;109;19.806;-70.704;2022-08-19T08:36:36;101441.88;;;27.02;63.29
250;BME280;109;19.806;-70.704;2022-08-19T08:39:16;101432.31;;;27.47;62.28
250;BME280;109;19.806;-70.704;2022-08-19T08:47:15;101437.44;;;26.84;63.23
250;BME280;109;19.806;-70.704;2022-08-19T08:49:52;101435.56;;;27.03;62.95
250;BME280;109;19.806;-70.704;2022-08-19T08:52:39;101434.34;;;26.57;63.79
250;BME280;109;19.806;-70.704;2022-08-19T08:55:19;101423.16;;;27.01;63.00
250;BME280;109;19.806;-70.704;2022-08-19T08:58:06;101424.28;;;27.30;62.31
250;BME280;109;19.806;-70.704;2022-08-19T09:00:49;101426.47;;;27.56;61.43
250;BME280;109;19.806;-70.704;2022-08-19T09:03:21;101424.81;;;27.36;62.15
250;BME280;109;19.806;-70.704;2022-08-19T09:09:18;101426.94;;;26.97;63.23
250;BME280;109;19.806;-70.704;2022-08-19T09:12:10;101427.28;;;26.37;64.03
250;BME280;109;19.806;-70.704;2022-08-19T09:15:06;101431.53;;;26.77;63.22
250;BME280;109;19.806;-70.704;2022-08-19T09:17:49;101441.94;;;26.83;63.39
250;BME280;109;19.806;-70.704;2022-08-19T09:20:23;101439.50;;;26.96;63.02
250;BME280;109;19.806;-70.704;2022-08-19T09:23:10;101440.00;;;27.37;61.94
250;BME280;109;19.806;-70.704;2022-08-19T09:25:49;101452.19;;;27.27;62.48
250;BME280;109;19.806;-70.704;2022-08-19T09:28:16;101433.66;;;27.55;62.18
250;BME280;109;19.806;-70.704;2022-08-19T09:30:56;101446.75;;;27.29;61.97
250;BME280;109;19.806;-70.704;2022-08-19T09:33:23;101450.28;;;27.46;61.97
250;BME280;109;19.806;-70.704;2022-08-19T09:36:07;101458.19;;;27.49;61.70
250;BME280;109;19.806;-70.704;2022-08-19T09:38:41;101459.63;;;26.70;63.38
250;BME280;109;19.806;-70.704;2022-08-19T09:41:23;101464.47;;;26.98;63.38
250;BME280;109;19.806;-70.704;2022-08-19T09:43:59;101460.78;;;27.34;62.66
250;BME280;109;19.806;-70.704;2022-08-19T09:46:42;101468.31;;;27.27;62.52
250;BME280;109;19.806;-70.704;2022-08-19T09:49:08;101458.38;;;27.29;62.11
250;BME280;109;19.806;-70.704;2022-08-19T09:51:51;101466.00;;;27.04;62.61
250;BME280;109;19.806;-70.704;2022-08-19T09:54:18;101469.22;;;27.10;62.96
250;BME280;109;19.806;-70.704;2022-08-19T09:56:58;101463.72;;;26.24;64.67
250;BME280;109;19.806;-70.704;2022-08-19T09:59:27;101467.22;;;26.07;64.97
250;BME280;109;19.806;-70.704;2022-08-19T10:02:07;101468.63;;;26.33;64.69
250;BME280;109;19.806;-70.704;2022-08-19T10:04:33;101476.81;;;25.94;65.42
250;BME280;109;19.806;-70.704;2022-08-19T10:07:32;101476.00;;;26.11;65.15
250;BME280;109;19.806;-70.704;2022-08-19T10:09:58;101476.75;;;26.32;64.17
250;BME280;109;19.806;-70.704;2022-08-19T10:12:42;101481.56;;;26.44;64.44
250;BME280;109;19.806;-70.704;2022-08-19T10:15:20;101485.25;;;26.77;63.58
250;BME280;109;19.806;-70.704;2022-08-19T10:18:00;101492.34;;;26.78;63.44
250;BME280;109;19.806;-70.704;2022-08-19T10:20:48;101488.09;;;26.20;64.95
250;BME280;109;19.806;-70.704;2022-08-19T10:23:28;101489.38;;;26.48;63.89
250;BME280;109;19.806;-70.704;2022-08-19T10:26:22;101495.09;;;26.60;63.96
250;BME280;109;19.806;-70.704;2022-08-19T10:28:57;101488.22;;;26.71;63.20
250;BME280;109;19.806;-70.704;2022-08-19T10:31:38;101498.66;;;26.41;63.73
250;BME280;109;19.806;-70.704;2022-08-19T10:34:04;101491.13;;;26.31;64.01
250;BME280;109;19.806;-70.704;2022-08-19T10:36:44;101491.66;;;26.20;64.86
250;BME280;109;19.806;-70.704;2022-08-19T10:39:11;101499.03;;;26.34;64.43
250;BME280;109;19.806;-70.704;2022-08-19T10:41:52;101502.59;;;26.15;64.28
250;BME280;109;19.806;-70.704;2022-08-19T10:44:18;101503.19;;;26.22;64.18
250;BME280;109;19.806;-70.704;2022-08-19T10:46:59;101510.53;;;26.55;64.09
250;BME280;109;19.806;-70.704;2022-08-19T10:49:25;101513.03;;;26.76;63.21
250;BME280;109;19.806;-70.704;2022-08-19T10:52:25;101512.56;;;26.85;63.13
250;BME280;109;19.806;-70.704;2022-08-19T10:55:07;101510.56;;;26.17;64.55
250;BME280;109;19.806;-70.704;2022-08-19T10:58:17;101523.63;;;26.25;64.09
250;BME280;109;19.806;-70.704;2022-08-19T11:00:59;101525.22;;;26.29;64.47
250;BME280;109;19.806;-70.704;2022-08-19T11:03:25;101517.78;;;25.98;64.97
250;BME280;109;19.806;-70.704;2022-08-19T11:06:07;101520.72;;;26.29;64.22
250;BME280;109;19.806;-70.704;2022-08-19T11:08:35;101519.38;;;26.75;63.92
250;BME280;109;19.806;-70.704;2022-08-19T11:11:17;101516.13;;;26.86;63.43
250;BME280;109;19.806;-70.704;2022-08-19T11:13:44;101517.56;;;26.93;63.33
250;BME280;109;19.806;-70.704;2022-08-19T11:16:26;101516.56;;;27.13;62.35
250;BME280;109;19.806;-70.704;2022-08-19T11:19:02;101521.78;;;27.16;62.24
250;BME280;109;19.806;-70.704;2022-08-19T11:21:49;101525.94;;;27.21;62.25
250;BME280;109;19.806;-70.704;2022-08-19T11:24:24;101526.66;;;27.08;62.49
250;BME280;109;19.806;-70.704;2022-08-19T11:27:12;101524.06;;;27.06;62.77
250;BME280;109;19.806;-70.704;2022-08-19T11:29:45;101529.13;;;27.12;62.50
250;BME280;109;19.806;-70.704;2022-08-19T11:32:26;101524.28;;;27.53;61.59
250;BME280;109;19.806;-70.704;2022-08-19T11:34:53;101526.91;;;27.71;61.00
250;BME280;109;19.806;-70.704;2022-08-19T11:37:33;101539.09;;;27.78;61.23
250;BME280;109;19.806;-70.704;2022-08-19T11:40:12;101535.88;;;28.04;60.65
250;BME280;109;19.806;-70.704;2022-08-19T11:42:52;101539.06;;;28.11;59.87
250;BME280;109;19.806;-70.704;2022-08-19T11:45:32;101540.22;;;28.07;60.14
250;BME280;109;19.806;-70.704;2022-08-19T11:47:58;101542.72;;;28.10;59.82
250;BME280;109;19.806;-70.704;2022-08-19T11:50:38;101534.66;;;28.25;59.46
250;BME280;109;19.806;-70.704;2022-08-19T11:53:06;101532.50;;;28.48;58.80
250;BME280;109;19.806;-70.704;2022-08-19T11:55:46;101544.72;;;28.69;58.59
250;BME280;109;19.806;-70.704;2022-08-19T11:58:14;101543.59;;;28.73;58.33
250;BME280;109;19.806;-70.704;2022-08-19T12:01:04;101545.88;;;29.11;57.66
250;BME280;109;19.806;-70.704;2022-08-19T12:03:38;101551.22;;;28.97;58.17
250;BME280;109;19.806;-70.704;2022-08-19T12:06:23;101558.44;;;28.96;58.15
250;BME280;109;19.806;-70.704;2022-08-19T12:09:06;101556.16;;;29.04;57.21
250;BME280;109;19.806;-70.704;2022-08-19T12:11:49;101564.19;;;29.20;57.62
250;BME280;109;19.806;-70.704;2022-08-19T12:14:16;101566.31;;;29.29;57.13
250;BME280;109;19.806;-70.704;2022-08-19T12:16:56;101567.97;;;29.31;57.08
250;BME280;109;19.806;-70.704;2022-08-19T12:19:22;101575.09;;;29.33;57.34
250;BME280;109;19.806;-70.704;2022-08-19T12:22:09;101566.59;;;29.69;56.75
250;BME280;109;19.806;-70.704;2022-08-19T12:24:43;101578.19;;;29.85;56.29
250;BME280;109;19.806;-70.704;2022-08-19T12:27:32;101571.34;;;30.08;55.50
250;BME280;109;19.806;-70.704;2022-08-19T12:30:07;101563.06;;;29.96;55.95
250;BME280;109;19.806;-70.704;2022-08-19T12:32:47;101564.34;;;30.32;55.00
250;BME280;109;19.806;-70.704;2022-08-19T12:35:27;101571.50;;;30.33;54.52
250;BME280;109;19.806;-70.704;2022-08-19T12:37:54;101576.38;;;29.99;56.04
250;BME280;109;19.806;-70.704;2022-08-19T12:40:35;101571.63;;;30.17;55.18
250;BME280;109;19.806;-70.704;2022-08-19T12:43:01;101575.41;;;30.15;55.75
250;BME280;109;19.806;-70.704;2022-08-19T12:45:42;101580.59;;;30.18;55.17
250;BME280;109;19.806;-70.704;2022-08-19T12:48:11;101593.59;;;30.25;55.33
250;BME280;109;19.806;-70.704;2022-08-19T12:50:52;101590.13;;;30.23;55.63
250;BME280;109;19.806;-70.704;2022-08-19T12:53:18;101602.47;;;30.27;55.31
250;BME280;109;19.806;-70.704;2022-08-19T12:55:58;101605.09;;;30.29;55.70
250;BME280;109;19.806;-70.704;2022-08-19T12:58:26;101601.28;;;30.31;55.47
250;BME280;109;19.806;-70.704;2022-08-19T13:01:15;101604.97;;;30.30;55.53
250;BME280;109;19.806;-70.704;2022-08-19T13:03:50;101604.19;;;30.43;55.42
250;BME280;109;19.806;-70.704;2022-08-19T13:06:30;101611.63;;;30.39;55.94
250;BME280;109;19.806;-70.704;2022-08-19T13:08:56;101597.97;;;30.42;55.49
250;BME280;109;19.806;-70.704;2022-08-19T13:11:37;101603.31;;;30.83;55.49
250;BME280;109;19.806;-70.704;2022-08-19T13:14:04;101607.22;;;30.79;54.78
250;BME280;109;19.806;-70.704;2022-08-19T13:16:44;101602.19;;;30.73;55.12
250;BME280;109;19.806;-70.704;2022-08-19T13:19:10;101609.13;;;30.91;54.81
250;BME280;109;19.806;-70.704;2022-08-19T13:21:59;101608.72;;;30.83;54.86
250;BME280;109;19.806;-70.704;2022-08-19T13:24:32;101608.69;;;30.97;55.12
250;BME280;109;19.806;-70.704;2022-08-19T13:27:14;101606.75;;;30.99;55.12
250;BME280;109;19.806;-70.704;2022-08-19T13:29:47;101598.34;;;30.77;54.87
250;BME280;109;19.806;-70.704;2022-08-19T13:32:46;101600.66;;;30.69;55.18
250;BME280;109;19.806;-70.704;2022-08-19T13:35:57;101594.09;;;30.73;54.90
250;BME280;109;19.806;-70.704;2022-08-19T13:38:31;101591.19;;;30.76;54.98
250;BME280;109;19.806;-70.704;2022-08-19T13:41:04;101595.19;;;30.56;55.19
250;BME280;109;19.806;-70.704;2022-08-19T13:43:31;101593.97;;;30.33;55.82
250;BME280;109;19.806;-70.704;2022-08-19T13:45:57;101607.28;;;30.51;55.69
250;BME280;109;19.806;-70.704;2022-08-19T13:48:25;101609.22;;;30.20;56.23
250;BME280;109;19.806;-70.704;2022-08-19T13:50:55;101602.13;;;30.60;56.58
250;BME280;109;19.806;-70.704;2022-08-19T13:53:23;101599.56;;;30.45;55.95
250;BME280;109;19.806;-70.704;2022-08-19T13:55:49;101598.88;;;30.55;55.82
250;BME280;109;19.806;-70.704;2022-08-19T13:58:16;101604.75;;;30.62;56.43
250;BME280;109;19.806;-70.704;2022-08-19T14:00:45;101611.78;;;30.64;55.91
250;BME280;109;19.806;-70.704;2022-08-19T14:03:18;101611.22;;;30.59;56.03
250;BME280;109;19.806;-70.704;2022-08-19T14:05:45;101610.09;;;30.90;56.31
250;BME280;109;19.806;-70.704;2022-08-19T14:08:12;101618.59;;;30.70;56.07
250;BME280;109;19.806;-70.704;2022-08-19T14:10:39;101622.56;;;30.79;55.87
250;BME280;109;19.806;-70.704;2022-08-19T14:13:08;101617.00;;;30.94;55.32
250;BME280;109;19.806;-70.704;2022-08-19T14:15:35;101608.97;;;31.07;55.21
250;BME280;109;19.806;-70.704;2022-08-19T14:18:03;101612.22;;;30.71;55.35
250;BME280;109;19.806;-70.704;2022-08-19T14:20:29;101614.16;;;30.69;56.03
250;BME280;109;19.806;-70.704;2022-08-19T14:23:03;101610.06;;;30.63;55.11
250;BME280;109;19.806;-70.704;2022-08-19T14:25:31;101614.69;;;30.88;55.59
250;BME280;109;19.806;-70.704;2022-08-19T14:27:58;101610.00;;;30.92;55.16
250;BME280;109;19.806;-70.704;2022-08-19T14:30:30;101616.63;;;31.13;54.74
250;BME280;109;19.806;-70.704;2022-08-19T14:32:59;101621.78;;;30.77;55.84
250;BME280;109;19.806;-70.704;2022-08-19T14:35:27;101625.22;;;30.52;57.03
250;BME280;109;19.806;-70.704;2022-08-19T14:37:55;101634.50;;;30.48;55.90
250;BME280;109;19.806;-70.704;2022-08-19T14:40:25;101624.78;;;30.72;55.58
250;BME280;109;19.806;-70.704;2022-08-19T14:42:57;101622.25;;;30.28;56.24
250;BME280;109;19.806;-70.704;2022-08-19T14:45:31;101630.72;;;30.22;56.73
250;BME280;109;19.806;-70.704;2022-08-19T14:48:07;101633.25;;;29.96;56.63
250;BME280;109;19.806;-70.704;2022-08-19T14:50:34;101633.63;;;30.19;56.45
250;BME280;109;19.806;-70.704;2022-08-19T14:53:07;101616.81;;;30.56;54.58
250;BME280;109;19.806;-70.704;2022-08-19T14:55:35;101615.16;;;30.68;53.97
250;BME280;109;19.806;-70.704;2022-08-19T14:58:01;101615.34;;;30.65;53.78
250;BME280;109;19.806;-70.704;2022-08-19T15:00:28;101616.91;;;30.82;53.48
250;BME280;109;19.806;-70.704;2022-08-19T15:02:55;101618.56;;;31.11;53.17
250;BME280;109;19.806;-70.704;2022-08-19T15:05:21;101615.84;;;31.38;52.34
250;BME280;109;19.806;-70.704;2022-08-19T15:07:48;101617.91;;;31.47;52.39
250;BME280;109;19.806;-70.704;2022-08-19T15:10:15;101623.91;;;31.78;52.42
250;BME280;109;19.806;-70.704;2022-08-19T15:12:42;101616.94;;;31.48;50.38
250;BME280;109;19.806;-70.704;2022-08-19T15:15:10;101627.25;;;31.16;51.82
250;BME280;109;19.806;-70.704;2022-08-19T15:17:41;101610.81;;;31.19;52.17
250;BME280;109;19.806;-70.704;2022-08-19T15:20:09;101596.63;;;31.16;52.42
250;BME280;109;19.806;-70.704;2022-08-19T15:22:36;101607.63;;;31.39;53.14
250;BME280;109;19.806;-70.704;2022-08-19T15:25:05;101600.41;;;31.65;52.95
250;BME280;109;19.806;-70.704;2022-08-19T15:27:32;101595.34;;;31.86;51.82
250;BME280;109;19.806;-70.704;2022-08-19T15:29:58;101596.94;;;32.01;51.21
250;BME280;109;19.806;-70.704;2022-08-19T15:32:25;101590.88;;;32.10;50.76